sensor_id;sensor_type;location;lat;lon;timestamp;pressure;altitude;pressure_sealevel;temperature;humidity
5062;BME280;2351;50.812;12.872;2024-03-07T00:01:29;98635.03;;;1.88;91.97
5062;BME280;2351;50.812;12.872;2024-03-07T00:04:02;98634.13;;;1.89;92.15
5062;BME280;2351;50.812;12.872;2024-03-07T00:06:34;98623.69;;;1.89;92.14
5062;BME280;2351;50.812;12.872;2024-03-07T00:09:05;98626.31;;;1.89;92.51
5062;BME280;2351;50.812;12.872;2024-03-07T00:11:37;98630.69;;;1.88;92.60
5062;BME280;2351;50.812;12.872;2024-03-07T00:14:10;98630.69;;;1.88;92.40
5062;BME280;2351;50.812;12.872;2024-03-07T00:16:43;98634.09;;;1.90;92.51
5062;BME280;2351;50.812;12.872;2024-03-07T00:19:14;98633.22;;;1.90;92.51
5062;BME280;2351;50.812;12.872;2024-03-07T00:21:46;98634.94;;;1.91;92.57
5062;BME280;2351;50.812;12.872;2024-03-07T00:24:18;98633.19;;;1.91;92.65
5062;BME280;2351;50.812;12.872;2024-03-07T00:26:50;98631.41;;;1.92;93.06
5062;BME280;2351;50.812;12.872;2024-03-07T00:29:22;98623.56;;;1.92;93.08
5062;BME280;2351;50.812;12.872;2024-03-07T00:31:56;98629.66;;;1.92;93.02
5062;BME280;2351;50.812;12.872;2024-03-07T00:34:29;98630.50;;;1.93;93.06
5062;BME280;2351;50.812;12.872;2024-03-07T00:37:00;98634.00;;;1.92;93.39
5062;BME280;2351;50.812;12.872;2024-03-07T00:39:32;98634.00;;;1.92;93.79
5062;BME280;2351;50.812;12.872;2024-03-07T00:42:05;98630.59;;;1.90;93.88
5062;BME280;2351;50.812;12.872;2024-03-07T00:44:36;98624.44;;;1.92;93.80
5062;BME280;2351;50.812;12.872;2024-03-07T00:47:10;98619.25;;;1.91;93.77
5062;BME280;2351;50.812;12.872;2024-03-07T00:49:42;98618.41;;;1.90;93.90
5062;BME280;2351;50.812;12.872;2024-03-07T00:52:14;98624.47;;;1.91;93.96
5062;BME280;2351;50.812;12.872;2024-03-07T00:54:46;98615.63;;;1.95;94.10
5062;BME280;2351;50.812;12.872;2024-03-07T00:57:17;98613.91;;;1.94;93.98
5062;BME280;2351;50.812;12.872;2024-03-07T00:59:49;98609.81;;;1.88;94.18
5062;BME280;2351;50.812;12.872;2024-03-07T01:02:22;98607.97;;;1.90;94.31
5062;BME280;2351;50.812;12.872;2024-03-07T01:04:55;98606.28;;;1.89;94.58
5062;BME280;2351;50.812;12.872;2024-03-07T01:07:27;98608.09;;;1.87;94.71
5062;BME280;2351;50.812;12.872;2024-03-07T01:09:58;98607.91;;;1.92;94.85
5062;BME280;2351;50.812;12.872;2024-03-07T01:12:31;98607.97;;;1.90;94.90
5062;BME280;2351;50.812;12.872;2024-03-07T01:15:05;98600.19;;;1.89;95.05
5062;BME280;2351;50.812;12.872;2024-03-07T01:17:39;98608.09;;;1.87;95.45
5062;BME280;2351;50.812;12.872;2024-03-07T01:20:11;98605.41;;;1.89;95.74
5062;BME280;2351;50.812;12.872;2024-03-07T01:22:42;98608.88;;;1.89;95.41
5062;BME280;2351;50.812;12.872;2024-03-07T01:25:14;98600.06;;;1.92;95.42
5062;BME280;2351;50.812;12.872;2024-03-07T01:27:47;98600.94;;;1.92;96.19
5062;BME280;2351;50.812;12.872;2024-03-07T01:30:19;98603.47;;;1.94;95.69
5062;BME280;2351;50.812;12.872;2024-03-07T01:32:55;98607.78;;;1.95;95.97
5062;BME280;2351;50.812;12.872;2024-03-07T01:35:26;98597.41;;;1.93;95.86
5062;BME280;2351;50.812;12.872;2024-03-07T01:37:58;98600.06;;;1.92;96.53
5062;BME280;2351;50.812;12.872;2024-03-07T01:40:30;98610.59;;;1.90;98.11
5062;BME280;2351;50.812;12.872;2024-03-07T01:43:01;98608.09;;;1.87;98.20
5062;BME280;2351;50.812;12.872;2024-03-07T01:45:33;98605.50;;;1.87;97.41
5062;BME280;2351;50.812;12.872;2024-03-07T01:48:09;98603.72;;;1.88;97.68
5062;BME280;2351;50.812;12.872;2024-03-07T01:50:41;98605.41;;;1.89;98.27
5062;BME280;2351;50.812;12.872;2024-03-07T01:53:13;98605.56;;;1.86;99.63
5062;BME280;2351;50.812;12.872;2024-03-07T01:55:45;98597.78;;;1.84;99.67
5062;BME280;2351;50.812;12.872;2024-03-07T01:58:18;98597.84;;;1.83;99.78
5062;BME280;2351;50.812;12.872;2024-03-07T02:00:50;98595.34;;;1.79;99.70
5062;BME280;2351;50.812;12.872;2024-03-07T02:03:23;98591.88;;;1.79;100.00
5062;BME280;2351;50.812;12.872;2024-03-07T02:05:55;98591.09;;;1.77;100.00
5062;BME280;2351;50.812;12.872;2024-03-07T02:08:27;98590.34;;;1.75;100.00
5062;BME280;2351;50.812;12.872;2024-03-07T02:10:59;98593.88;;;1.72;100.00
5062;BME280;2351;50.812;12.872;2024-03-07T02:13:31;98589.66;;;1.70;100.00
5062;BME280;2351;50.812;12.872;2024-03-07T02:16:03;98588.91;;;1.66;100.00
5062;BME280;2351;50.812;12.872;2024-03-07T02:18:36;98579.56;;;1.60;100.00
5062;BME280;2351;50.812;12.872;2024-03-07T02:21:10;98576.13;;;1.60;100.00
5062;BME280;2351;50.812;12.872;2024-03-07T02:23:42;98582.25;;;1.59;100.00
5062;BME280;2351;50.812;12.872;2024-03-07T02:26:14;98575.31;;;1.58;100.00
5062;BME280;2351;50.812;12.872;2024-03-07T02:28:45;98571.06;;;1.55;100.00
5062;BME280;2351;50.812;12.872;2024-03-07T02:31:17;98573.75;;;1.54;100.00
5062;BME280;2351;50.812;12.872;2024-03-07T02:33:49;98578.13;;;1.53;100.00
5062;BME280;2351;50.812;12.872;2024-03-07T02:36:22;98575.44;;;1.55;100.00
5062;BME280;2351;50.812;12.872;2024-03-07T02:38:54;98571.94;;;1.56;100.00
5062;BME280;2351;50.812;12.872;2024-03-07T02:41:26;98572.75;;;1.56;100.00
5062;BME280;2351;50.812;12.872;2024-03-07T02:43:57;98565.84;;;1.55;100.00
5062;BME280;2351;50.812;12.872;2024-03-07T02:46:29;98570.09;;;1.58;100.00
5062;BME280;2351;50.812;12.872;2024-03-07T02:49:02;98566.59;;;1.59;100.00
5062;BME280;2351;50.812;12.872;2024-03-07T02:51:35;98558.75;;;1.59;100.00
5062;BME280;2351;50.812;12.872;2024-03-07T02:54:07;98558.81;;;1.57;100.00
5062;BME280;2351;50.812;12.872;2024-03-07T02:56:39;98557.00;;;1.59;100.00
5062;BME280;2351;50.812;12.872;2024-03-07T02:59:10;98556.03;;;1.62;100.00
5062;BME280;2351;50.812;12.872;2024-03-07T03:01:42;98557.59;;;1.66;100.00
5062;BME280;2351;50.812;12.872;2024-03-07T03:04:14;98552.25;;;1.69;100.00
5062;BME280;2351;50.812;12.872;2024-03-07T03:10:31;98556.44;;;1.73;100.00
5062;BME280;2351;50.812;12.872;2024-03-07T03:13:03;98548.63;;;1.73;100.00
5062;BME280;2351;50.812;12.872;2024-03-07T03:15:35;98554.69;;;1.74;100.00
5062;BME280;2351;50.812;12.872;2024-03-07T03:18:08;98553.78;;;1.75;100.00
5062;BME280;2351;50.812;12.872;2024-03-07T03:20:40;98556.41;;;1.75;100.00
5062;BME280;2351;50.812;12.872;2024-03-07T03:23:13;98553.94;;;1.70;100.00
5062;BME280;2351;50.812;12.872;2024-03-07T03:25:46;98552.22;;;1.71;100.00
5062;BME280;2351;50.812;12.872;2024-03-07T03:28:19;98557.34;;;1.72;100.00
5062;BME280;2351;50.812;12.872;2024-03-07T03:30:51;98559.00;;;1.75;100.00
5062;BME280;2351;50.812;12.872;2024-03-07T03:33:23;98552.91;;;1.74;100.00
5062;BME280;2351;50.812;12.872;2024-03-07T03:35:55;98548.50;;;1.76;100.00
5062;BME280;2351;50.812;12.872;2024-03-07T03:38:27;98550.28;;;1.76;100.00
5062;BME280;2351;50.812;12.872;2024-03-07T03:41:00;98556.25;;;1.78;100.00
5062;BME280;2351;50.812;12.872;2024-03-07T03:43:31;98560.63;;;1.77;100.00
5062;BME280;2351;50.812;12.872;2024-03-07T03:46:03;98545.88;;;1.76;100.00
5062;BME280;2351;50.812;12.872;2024-03-07T03:48:35;98556.25;;;1.78;100.00
5062;BME280;2351;50.812;12.872;2024-03-07T03:51:08;98551.88;;;1.78;100.00
5062;BME280;2351;50.812;12.872;2024-03-07T03:53:39;98547.50;;;1.79;100.00
5062;BME280;2351;50.812;12.872;2024-03-07T03:56:13;98549.19;;;1.80;100.00
5062;BME280;2351;50.812;12.872;2024-03-07T03:58:46;98552.81;;;1.77;100.00
5062;BME280;2351;50.812;12.872;2024-03-07T04:01:17;98551.94;;;1.77;100.00
5062;BME280;2351;50.812;12.872;2024-03-07T04:03:49;98551.09;;;1.76;100.00
5062;BME280;2351;50.812;12.872;2024-03-07T04:06:21;98551.09;;;1.76;100.00
5062;BME280;2351;50.812;12.872;2024-03-07T04:08:52;98549.41;;;1.75;100.00
5062;BME280;2351;50.812;12.872;2024-03-07T04:11:27;98546.78;;;1.75;100.00
5062;BME280;2351;50.812;12.872;2024-03-07T04:13:58;98552.09;;;1.74;100.00
5062;BME280;2351;50.812;12.872;2024-03-07T04:16:31;98549.47;;;1.74;100.00
5062;BME280;2351;50.812;12.872;2024-03-07T04:19:03;98547.66;;;1.76;100.00
5062;BME280;2351;50.812;12.872;2024-03-07T04:21:35;98545.09;;;1.74;100.00
5062;BME280;2351;50.812;12.872;2024-03-07T04:24:06;98548.63;;;1.73;100.00
5062;BME280;2351;50.812;12.872;2024-03-07T04:26:39;98539.88;;;1.74;100.00
5062;BME280;2351;50.812;12.872;2024-03-07T04:29:12;98537.25;;;1.74;100.00
5062;BME280;2351;50.812;12.872;2024-03-07T04:31:43;98541.56;;;1.75;100.00
5062;BME280;2351;50.812;12.872;2024-03-07T04:34:16;98542.44;;;1.76;100.00
5062;BME280;2351;50.812;12.872;2024-03-07T04:36:47;98537.22;;;1.76;100.00
5062;BME280;2351;50.812;12.872;2024-03-07T04:39:19;98540.59;;;1.78;100.00
5062;BME280;2351;50.812;12.872;2024-03-07T04:42:02;98536.34;;;1.75;100.00
5062;BME280;2351;50.812;12.872;2024-03-07T04:44:36;98529.44;;;1.74;100.00
5062;BME280;2351;50.812;12.872;2024-03-07T04:47:07;98540.66;;;1.76;100.00
5062;BME280;2351;50.812;12.872;2024-03-07T04:49:39;98534.53;;;1.77;100.00
5062;BME280;2351;50.812;12.872;2024-03-07T04:52:11;98536.22;;;1.78;100.00
5062;BME280;2351;50.812;12.872;2024-03-07T04:54:43;98536.22;;;1.78;100.00
5062;BME280;2351;50.812;12.872;2024-03-07T04:57:16;98532.72;;;1.79;100.00
5062;BME280;2351;50.812;12.872;2024-03-07T04:59:49;98541.22;;;1.85;100.00
5062;BME280;2351;50.812;12.872;2024-03-07T05:02:21;98536.69;;;1.88;100.00
5062;BME280;2351;50.812;12.872;2024-03-07T05:04:53;98527.09;;;1.89;100.00
5062;BME280;2351;50.812;12.872;2024-03-07T05:07:25;98522.63;;;1.92;100.00
5062;BME280;2351;50.812;12.872;2024-03-07T05:09:57;98530.25;;;1.97;100.00
5062;BME280;2351;50.812;12.872;2024-03-07T05:12:30;98527.50;;;2.00;100.00
5062;BME280;2351;50.812;12.872;2024-03-07T05:15:02;98531.75;;;2.03;100.00
5062;BME280;2351;50.812;12.872;2024-03-07T05:17:35;98536.00;;;2.05;100.00
5062;BME280;2351;50.812;12.872;2024-03-07T05:20:08;98531.56;;;2.07;100.00
5062;BME280;2351;50.812;12.872;2024-03-07T05:22:42;98541.09;;;2.08;100.00
5062;BME280;2351;50.812;12.872;2024-03-07T05:25:20;98536.63;;;2.10;100.00
5062;BME280;2351;50.812;12.872;2024-03-07T05:27:54;98548.78;;;2.11;100.00
5062;BME280;2351;50.812;12.872;2024-03-07T05:30:26;98536.59;;;2.12;100.00
5062;BME280;2351;50.812;12.872;2024-03-07T05:32:58;98540.03;;;2.13;100.00
5062;BME280;2351;50.812;12.872;2024-03-07T05:35:32;98534.81;;;2.13;100.00
5062;BME280;2351;50.812;12.872;2024-03-07T05:38:03;98533.13;;;2.11;100.00
5062;BME280;2351;50.812;12.872;2024-03-07T05:40:36;98541.88;;;2.10;100.00
5062;BME280;2351;50.812;12.872;2024-03-07T05:43:09;98535.72;;;2.11;100.00
5062;BME280;2351;50.812;12.872;2024-03-07T05:45:42;98526.97;;;2.13;100.00
5062;BME280;2351;50.812;12.872;2024-03-07T05:48:14;98530.47;;;2.13;100.00
5062;BME280;2351;50.812;12.872;2024-03-07T05:50:47;98534.66;;;2.17;100.00
5062;BME280;2351;50.812;12.872;2024-03-07T05:53:19;98531.94;;;2.19;100.00
5062;BME280;2351;50.812;12.872;2024-03-07T05:55:51;98533.66;;;2.20;100.00
5062;BME280;2351;50.812;12.872;2024-03-07T05:58:24;98539.66;;;2.22;100.00
5062;BME280;2351;50.812;12.872;2024-03-07T06:00:56;98530.78;;;2.26;100.00
5062;BME280;2351;50.812;12.872;2024-03-07T06:03:27;98533.44;;;2.24;100.00
5062;BME280;2351;50.812;12.872;2024-03-07T06:05:59;98541.09;;;2.29;100.00
5062;BME280;2351;50.812;12.872;2024-03-07T06:08:31;98532.34;;;2.30;100.00
5062;BME280;2351;50.812;12.872;2024-03-07T06:11:03;98543.50;;;2.34;100.00
5062;BME280;2351;50.812;12.872;2024-03-07T06:13:36;98545.13;;;2.36;100.00
5062;BME280;2351;50.812;12.872;2024-03-07T06:16:07;98542.53;;;2.36;100.00
5062;BME280;2351;50.812;12.872;2024-03-07T06:18:39;98547.63;;;2.39;100.00
5062;BME280;2351;50.812;12.872;2024-03-07T06:21:11;98542.53;;;2.36;100.00
5062;BME280;2351;50.812;12.872;2024-03-07T06:23:43;98547.50;;;2.43;100.00
5062;BME280;2351;50.812;12.872;2024-03-07T06:26:16;98550.91;;;2.45;100.00
5062;BME280;2351;50.812;12.872;2024-03-07T06:28:58;98554.41;;;2.44;100.00
5062;BME280;2351;50.812;12.872;2024-03-07T06:31:30;98554.53;;;2.40;100.00
5062;BME280;2351;50.812;12.872;2024-03-07T06:34:02;98553.84;;;2.37;100.00
5062;BME280;2351;50.812;12.872;2024-03-07T06:36:34;98553.84;;;2.37;100.00
5062;BME280;2351;50.812;12.872;2024-03-07T06:39:06;98551.28;;;2.35;100.00
5062;BME280;2351;50.812;12.872;2024-03-07T06:41:40;98549.31;;;2.40;100.00
5062;BME280;2351;50.812;12.872;2024-03-07T06:44:13;98558.66;;;2.46;100.00
5062;BME280;2351;50.812;12.872;2024-03-07T06:46:45;98557.19;;;2.80;100.00
5062;BME280;2351;50.812;12.872;2024-03-07T06:49:17;98553.56;;;2.83;100.00
5062;BME280;2351;50.812;12.872;2024-03-07T06:51:51;98550.22;;;3.19;100.00
5062;BME280;2351;50.812;12.872;2024-03-07T06:54:24;98555.16;;;2.87;100.00
5062;BME280;2351;50.812;12.872;2024-03-07T06:56:56;98551.97;;;2.99;100.00
5062;BME280;2351;50.812;12.872;2024-03-07T06:59:29;98558.88;;;3.00;100.00
5062;BME280;2351;50.812;12.872;2024-03-07T07:02:02;98557.84;;;3.05;100.00
5062;BME280;2351;50.812;12.872;2024-03-07T07:04:34;98566.78;;;2.80;100.00
5062;BME280;2351;50.812;12.872;2024-03-07T07:07:11;98565.53;;;3.08;100.00
5062;BME280;2351;50.812;12.872;2024-03-07T07:09:44;98563.59;;;3.13;100.00
5062;BME280;2351;50.812;12.872;2024-03-07T07:12:15;98566.13;;;3.14;100.00
5062;BME280;2351;50.812;12.872;2024-03-07T07:14:49;98568.38;;;3.03;100.00
5062;BME280;2351;50.812;12.872;2024-03-07T07:17:21;98566.53;;;2.86;100.00
5062;BME280;2351;50.812;12.872;2024-03-07T07:19:54;98568.38;;;3.03;100.00
5062;BME280;2351;50.812;12.872;2024-03-07T07:22:26;98571.63;;;2.89;100.00
5062;BME280;2351;50.812;12.872;2024-03-07T07:24:57;98568.72;;;3.14;100.00
5062;BME280;2351;50.812;12.872;2024-03-07T07:27:29;98562.03;;;4.01;100.00
5062;BME280;2351;50.812;12.872;2024-03-07T07:30:02;98560.72;;;4.45;100.00
5062;BME280;2351;50.812;12.872;2024-03-07T07:32:34;98556.50;;;5.26;100.00
5062;BME280;2351;50.812;12.872;2024-03-07T07:35:07;98559.53;;;5.66;93.93
5062;BME280;2351;50.812;12.872;2024-03-07T07:37:42;98565.66;;;5.51;94.17
5062;BME280;2351;50.812;12.872;2024-03-07T07:40:16;98563.84;;;5.67;89.66
5062;BME280;2351;50.812;12.872;2024-03-07T07:42:51;98558.84;;;5.31;89.41
5062;BME280;2351;50.812;12.872;2024-03-07T07:45:24;98559.09;;;5.10;89.25
5062;BME280;2351;50.812;12.872;2024-03-07T07:47:56;98563.16;;;4.66;90.32
5062;BME280;2351;50.812;12.872;2024-03-07T07:50:29;98563.56;;;4.92;92.21
5062;BME280;2351;50.812;12.872;2024-03-07T07:53:00;98555.66;;;5.41;95.01
5062;BME280;2351;50.812;12.872;2024-03-07T07:55:37;98550.59;;;5.85;86.79
5062;BME280;2351;50.812;12.872;2024-03-07T07:58:10;98552.75;;;6.84;85.36
5062;BME280;2351;50.812;12.872;2024-03-07T08:00:43;98539.19;;;6.76;78.18
5062;BME280;2351;50.812;12.872;2024-03-07T08:03:15;98547.84;;;6.63;80.50
5062;BME280;2351;50.812;12.872;2024-03-07T08:05:48;98552.56;;;5.97;73.85
5062;BME280;2351;50.812;12.872;2024-03-07T08:08:20;98549.03;;;5.02;76.29
5062;BME280;2351;50.812;12.872;2024-03-07T08:10:52;98545.47;;;5.03;84.17
5062;BME280;2351;50.812;12.872;2024-03-07T08:13:24;98536.66;;;5.68;77.72
5062;BME280;2351;50.812;12.872;2024-03-07T08:15:57;98551.34;;;5.40;74.02
5062;BME280;2351;50.812;12.872;2024-03-07T08:18:29;98556.06;;;4.68;78.04
5062;BME280;2351;50.812;12.872;2024-03-07T08:21:01;98554.25;;;4.17;80.00
5062;BME280;2351;50.812;12.872;2024-03-07T08:23:33;98563.56;;;3.51;83.21
5062;BME280;2351;50.812;12.872;2024-03-07T08:26:04;98569.28;;;3.21;87.19
5062;BME280;2351;50.812;12.872;2024-03-07T08:28:36;98568.97;;;3.29;91.67
5062;BME280;2351;50.812;12.872;2024-03-07T08:31:10;98561.94;;;4.56;96.93
5062;BME280;2351;50.812;12.872;2024-03-07T08:33:41;98552.59;;;5.65;88.05
5062;BME280;2351;50.812;12.872;2024-03-07T08:36:15;98559.38;;;5.69;81.70
5062;BME280;2351;50.812;12.872;2024-03-07T08:38:47;98564.97;;;5.63;77.97
5062;BME280;2351;50.812;12.872;2024-03-07T08:41:18;98561.31;;;4.68;74.17
5062;BME280;2351;50.812;12.872;2024-03-07T08:43:50;98558.72;;;4.15;78.85
5062;BME280;2351;50.812;12.872;2024-03-07T08:46:23;98561.94;;;3.85;79.71
5062;BME280;2351;50.812;12.872;2024-03-07T08:48:55;98560.78;;;3.73;80.33
5062;BME280;2351;50.812;12.872;2024-03-07T08:51:27;98559.13;;;3.71;81.02
5062;BME280;2351;50.812;12.872;2024-03-07T08:53:59;98569.72;;;3.50;80.71
5062;BME280;2351;50.812;12.872;2024-03-07T08:56:30;98570.50;;;3.33;81.20
5062;BME280;2351;50.812;12.872;2024-03-07T08:59:03;98568.22;;;3.25;82.81
5062;BME280;2351;50.812;12.872;2024-03-07T09:01:36;98570.00;;;3.06;83.98
5062;BME280;2351;50.812;12.872;2024-03-07T09:04:08;98567.66;;;2.99;84.62
5062;BME280;2351;50.812;12.872;2024-03-07T09:06:39;98566.94;;;2.96;84.48
5062;BME280;2351;50.812;12.872;2024-03-07T09:09:11;98571.09;;;2.81;85.59
5062;BME280;2351;50.812;12.872;2024-03-07T09:11:44;98565.91;;;2.60;84.79
5062;BME280;2351;50.812;12.872;2024-03-07T09:14:16;98558.19;;;2.36;84.43
5062;BME280;2351;50.812;12.872;2024-03-07T09:16:49;98557.56;;;2.52;86.70
5062;BME280;2351;50.812;12.872;2024-03-07T09:19:22;98569.41;;;2.80;86.52
5062;BME280;2351;50.812;12.872;2024-03-07T09:21:54;98560.50;;;2.84;84.87
5062;BME280;2351;50.812;12.872;2024-03-07T09:24:26;98554.97;;;2.71;82.01
5062;BME280;2351;50.812;12.872;2024-03-07T09:26:58;98569.69;;;2.32;79.02
5062;BME280;2351;50.812;12.872;2024-03-07T09:29:30;98556.31;;;2.19;78.44
5062;BME280;2351;50.812;12.872;2024-03-07T09:32:04;98560.81;;;2.36;77.43
5062;BME280;2351;50.812;12.872;2024-03-07T09:34:38;98562.38;;;2.40;74.19
5062;BME280;2351;50.812;12.872;2024-03-07T09:37:10;98568.41;;;2.43;75.18
5062;BME280;2351;50.812;12.872;2024-03-07T09:39:41;98564.41;;;2.34;72.32
5062;BME280;2351;50.812;12.872;2024-03-07T09:42:17;98572.25;;;2.34;71.75
5062;BME280;2351;50.812;12.872;2024-03-07T09:44:50;98562.00;;;2.29;71.63
5062;BME280;2351;50.812;12.872;2024-03-07T09:47:24;98559.66;;;2.23;71.11
5062;BME280;2351;50.812;12.872;2024-03-07T09:49:57;98571.00;;;2.22;71.38
5062;BME280;2351;50.812;12.872;2024-03-07T09:52:30;98558.94;;;2.40;71.43
5062;BME280;2351;50.812;12.872;2024-03-07T09:55:02;98564.31;;;2.56;72.20
5062;BME280;2351;50.812;12.872;2024-03-07T09:57:34;98564.50;;;2.72;72.03
5062;BME280;2351;50.812;12.872;2024-03-07T10:00:08;98561.97;;;2.70;72.85
5062;BME280;2351;50.812;12.872;2024-03-07T10:02:57;98567.72;;;2.58;74.46
5062;BME280;2351;50.812;12.872;2024-03-07T10:05:30;98565.66;;;2.46;74.81
5062;BME280;2351;50.812;12.872;2024-03-07T10:08:02;98562.63;;;2.55;74.27
5062;BME280;2351;50.812;12.872;2024-03-07T10:10:34;98566.03;;;2.57;73.49
5062;BME280;2351;50.812;12.872;2024-03-07T10:13:06;98563.88;;;2.46;72.57
5062;BME280;2351;50.812;12.872;2024-03-07T10:15:40;98564.50;;;2.53;73.22
5062;BME280;2351;50.812;12.872;2024-03-07T10:18:15;98553.84;;;2.77;73.73
5062;BME280;2351;50.812;12.872;2024-03-07T10:20:49;98560.53;;;2.63;69.28
5062;BME280;2351;50.812;12.872;2024-03-07T10:23:20;98561.84;;;2.74;70.38
5062;BME280;2351;50.812;12.872;2024-03-07T10:25:52;98564.84;;;2.64;69.04
5062;BME280;2351;50.812;12.872;2024-03-07T10:28:26;98569.38;;;2.61;68.29
5062;BME280;2351;50.812;12.872;2024-03-07T10:30:58;98560.53;;;2.63;67.37
5062;BME280;2351;50.812;12.872;2024-03-07T10:33:31;98565.63;;;2.66;67.28
5062;BME280;2351;50.812;12.872;2024-03-07T10:36:05;98560.00;;;2.55;68.01
5062;BME280;2351;50.812;12.872;2024-03-07T10:38:40;98550.00;;;2.85;69.06
5062;BME280;2351;50.812;12.872;2024-03-07T10:41:12;98548.00;;;2.91;67.66
5062;BME280;2351;50.812;12.872;2024-03-07T10:43:49;98549.22;;;3.03;67.24
5062;BME280;2351;50.812;12.872;2024-03-07T10:46:25;98549.72;;;3.11;66.59
5062;BME280;2351;50.812;12.872;2024-03-07T10:48:59;98554.50;;;3.20;66.31
5062;BME280;2351;50.812;12.872;2024-03-07T10:51:40;98551.16;;;3.18;66.25
5062;BME280;2351;50.812;12.872;2024-03-07T10:54:20;98562.81;;;3.11;65.20
5062;BME280;2351;50.812;12.872;2024-03-07T10:57:03;98553.16;;;3.11;67.16
5062;BME280;2351;50.812;12.872;2024-03-07T10:59:39;98549.13;;;3.23;67.86
5062;BME280;2351;50.812;12.872;2024-03-07T11:02:18;98549.97;;;3.43;67.25
5062;BME280;2351;50.812;12.872;2024-03-07T11:04:54;98549.66;;;3.68;67.42
5062;BME280;2351;50.812;12.872;2024-03-07T11:07:26;98556.63;;;3.50;66.15
5062;BME280;2351;50.812;12.872;2024-03-07T11:09:59;98546.44;;;3.44;65.79
5062;BME280;2351;50.812;12.872;2024-03-07T11:12:34;98542.47;;;3.35;66.78
5062;BME280;2351;50.812;12.872;2024-03-07T11:15:08;98540.44;;;3.42;66.46
5062;BME280;2351;50.812;12.872;2024-03-07T11:17:45;98547.06;;;3.49;67.32
5062;BME280;2351;50.812;12.872;2024-03-07T11:20:20;98555.38;;;3.40;65.85
5062;BME280;2351;50.812;12.872;2024-03-07T11:22:52;98541.56;;;3.36;66.42
5062;BME280;2351;50.812;12.872;2024-03-07T11:25:26;98542.00;;;3.08;67.41
5062;BME280;2351;50.812;12.872;2024-03-07T11:28:00;98534.31;;;3.05;68.97
5062;BME280;2351;50.812;12.872;2024-03-07T11:30:32;98544.53;;;3.28;69.29
5062;BME280;2351;50.812;12.872;2024-03-07T11:33:06;98548.53;;;3.18;67.74
5062;BME280;2351;50.812;12.872;2024-03-07T11:35:39;98555.06;;;2.89;68.27
5062;BME280;2351;50.812;12.872;2024-03-07T11:38:11;98534.88;;;2.92;68.15
5062;BME280;2351;50.812;12.872;2024-03-07T11:40:43;98538.66;;;2.85;67.92
5062;BME280;2351;50.812;12.872;2024-03-07T11:43:14;98538.97;;;2.98;68.26
5062;BME280;2351;50.812;12.872;2024-03-07T11:45:46;98532.69;;;3.02;68.34
5062;BME280;2351;50.812;12.872;2024-03-07T11:48:22;98533.56;;;3.20;68.14
5062;BME280;2351;50.812;12.872;2024-03-07T11:50:55;98520.22;;;3.26;68.47
5062;BME280;2351;50.812;12.872;2024-03-07T11:53:27;98518.00;;;3.36;67.37
5062;BME280;2351;50.812;12.872;2024-03-07T11:55:59;98515.34;;;3.38;67.38
5062;BME280;2351;50.812;12.872;2024-03-07T11:58:40;98524.13;;;3.37;67.25
5062;BME280;2351;50.812;12.872;2024-03-07T12:01:12;98514.44;;;3.00;67.20
5062;BME280;2351;50.812;12.872;2024-03-07T12:03:44;98520.03;;;3.12;68.06
5062;BME280;2351;50.812;12.872;2024-03-07T12:06:22;98522.84;;;3.26;68.29
5062;BME280;2351;50.812;12.872;2024-03-07T12:08:53;98514.53;;;3.18;67.41
5062;BME280;2351;50.812;12.872;2024-03-07T12:11:26;98514.22;;;3.24;67.93
5062;BME280;2351;50.812;12.872;2024-03-07T12:13:58;98513.69;;;3.35;66.18
5062;BME280;2351;50.812;12.872;2024-03-07T12:16:29;98505.44;;;3.25;68.81
5062;BME280;2351;50.812;12.872;2024-03-07T12:19:02;98506.66;;;3.55;68.80
5062;BME280;2351;50.812;12.872;2024-03-07T12:21:37;98509.16;;;3.75;67.85
5062;BME280;2351;50.812;12.872;2024-03-07T12:24:13;98504.78;;;3.76;67.02
5062;BME280;2351;50.812;12.872;2024-03-07T12:26:45;98493.13;;;3.99;66.76
5062;BME280;2351;50.812;12.872;2024-03-07T12:29:17;98496.09;;;3.93;64.03
5062;BME280;2351;50.812;12.872;2024-03-07T12:31:50;98488.69;;;4.01;64.92
5062;BME280;2351;50.812;12.872;2024-03-07T12:34:22;98497.69;;;4.13;64.36
5062;BME280;2351;50.812;12.872;2024-03-07T12:36:58;98494.09;;;4.16;64.89
5062;BME280;2351;50.812;12.872;2024-03-07T12:39:32;98491.84;;;4.26;65.27
5062;BME280;2351;50.812;12.872;2024-03-07T12:42:06;98502.31;;;3.90;62.07
5062;BME280;2351;50.812;12.872;2024-03-07T12:44:41;98492.50;;;3.76;64.98
5062;BME280;2351;50.812;12.872;2024-03-07T12:47:16;98498.47;;;3.80;65.13
5062;BME280;2351;50.812;12.872;2024-03-07T12:49:48;98487.59;;;3.88;65.23
5062;BME280;2351;50.812;12.872;2024-03-07T12:52:21;98482.28;;;3.89;64.12
5062;BME280;2351;50.812;12.872;2024-03-07T12:54:53;98480.75;;;4.03;65.99
5062;BME280;2351;50.812;12.872;2024-03-07T12:57:25;98485.88;;;4.22;64.03
5062;BME280;2351;50.812;12.872;2024-03-07T12:59:58;98480.91;;;4.51;65.38
5062;BME280;2351;50.812;12.872;2024-03-07T13:02:30;98472.34;;;4.81;63.34
5062;BME280;2351;50.812;12.872;2024-03-07T13:05:01;98470.66;;;5.12;64.37
5062;BME280;2351;50.812;12.872;2024-03-07T13:07:35;98466.16;;;5.46;62.67
5062;BME280;2351;50.812;12.872;2024-03-07T13:10:08;98470.66;;;5.12;59.94
5062;BME280;2351;50.812;12.872;2024-03-07T13:12:40;98464.88;;;4.89;59.23
5062;BME280;2351;50.812;12.872;2024-03-07T13:15:13;98461.00;;;4.96;61.00
5062;BME280;2351;50.812;12.872;2024-03-07T13:17:45;98459.66;;;5.05;62.10
5062;BME280;2351;50.812;12.872;2024-03-07T13:20:18;98461.06;;;5.27;61.75
5062;BME280;2351;50.812;12.872;2024-03-07T13:22:53;98461.81;;;5.45;60.97
5062;BME280;2351;50.812;12.872;2024-03-07T13:25:29;98463.88;;;5.70;60.47
5062;BME280;2351;50.812;12.872;2024-03-07T13:28:06;98467.41;;;5.55;59.15
5062;BME280;2351;50.812;12.872;2024-03-07T13:30:39;98460.00;;;5.62;59.02
5062;BME280;2351;50.812;12.872;2024-03-07T13:33:11;98459.81;;;5.34;60.43
5062;BME280;2351;50.812;12.872;2024-03-07T13:35:44;98455.38;;;5.35;60.24
5062;BME280;2351;50.812;12.872;2024-03-07T13:38:17;98464.84;;;5.07;60.82
5062;BME280;2351;50.812;12.872;2024-03-07T13:40:49;98463.19;;;4.72;63.54
5062;BME280;2351;50.812;12.872;2024-03-07T13:43:20;98462.47;;;4.19;66.99
5062;BME280;2351;50.812;12.872;2024-03-07T13:45:52;98465.50;;;3.94;68.34
5062;BME280;2351;50.812;12.872;2024-03-07T13:48:24;98472.81;;;4.04;69.06
5062;BME280;2351;50.812;12.872;2024-03-07T13:50:56;98465.47;;;4.29;69.60